WV6877 SBMT-SBML
Flight info
| Callsign | WV6877 |
|---|---|
| Flight time | N/A |
| Altitude | 12500 |
| Route | DCT |
| Aircraft | C310/L-SDFGRWY/S |
Departure
| Time | 2026-04-28 22:01 |
|---|---|
| Airport | Campo de Marte Airport (SBMT) |
Arrival
| Time | N/A |
|---|---|
| Airport | Frank Miloye Milenkowichi–Marília State Airport (SBML) |
| Time | Latitude | Longitude | Altitude | Speed | Heading |
|---|---|---|---|---|---|
| 2026-04-28 21:36 | -23.51310 | -46.63338 | 2378 ft | 0 kts | 94° |
| 2026-04-28 21:53 | -23.51303 | -46.63319 | 2378 ft | 7 kts | 41° |
| 2026-04-28 21:53 | -23.51264 | -46.63359 | 2378 ft | 11 kts | 278° |
| 2026-04-28 21:53 | -23.51261 | -46.63388 | 2378 ft | 0 kts | 265° |
| 2026-04-28 21:54 | -23.51262 | -46.63398 | 2378 ft | 3 kts | 263° |
| 2026-04-28 21:54 | -23.51256 | -46.63413 | 2378 ft | 5 kts | 342° |
| 2026-04-28 21:54 | -23.51190 | -46.63425 | 2378 ft | 14 kts | 352° |
| 2026-04-28 21:54 | -23.51088 | -46.63440 | 2378 ft | 14 kts | 354° |
| 2026-04-28 21:55 | -23.51035 | -46.63450 | 2378 ft | 4 kts | 6° |
| 2026-04-28 21:55 | -23.51032 | -46.63418 | 2378 ft | 9 kts | 105° |
| 2026-04-28 21:55 | -23.51041 | -46.63352 | 2378 ft | 0 kts | 100° |
| 2026-04-28 21:55 | -23.51048 | -46.63315 | 2378 ft | 10 kts | 101° |
| 2026-04-28 21:56 | -23.51069 | -46.63204 | 2378 ft | 20 kts | 101° |
| 2026-04-28 21:56 | -23.51072 | -46.63170 | 2378 ft | 0 kts | 94° |
| 2026-04-28 21:56 | -23.51072 | -46.63163 | 2378 ft | 4 kts | 98° |
| 2026-04-28 21:56 | -23.51086 | -46.63092 | 2378 ft | 15 kts | 103° |
| 2026-04-28 21:57 | -23.51093 | -46.63028 | 2378 ft | 6 kts | 67° |
| 2026-04-28 21:57 | -23.51064 | -46.63011 | 2378 ft | 3 kts | 8° |
| 2026-04-28 21:57 | -23.51053 | -46.63010 | 2378 ft | 0 kts | 0° |
| 2026-04-28 21:57 | -23.51052 | -46.63010 | 2378 ft | 1 kts | 360° |
| 2026-04-28 21:58 | -23.51027 | -46.63031 | 2378 ft | 9 kts | 267° |
| 2026-04-28 21:58 | -23.51021 | -46.63106 | 2378 ft | 1 kts | 279° |
| 2026-04-28 21:58 | -23.51021 | -46.63107 | 2378 ft | 0 kts | 279° |
| 2026-04-28 22:00 | -23.51021 | -46.63109 | 2378 ft | 3 kts | 279° |
| 2026-04-28 22:00 | -23.51002 | -46.63268 | 2379 ft | 47 kts | 278° |
| 2026-04-28 22:00 | -23.50910 | -46.63798 | 2377 ft | 92 kts | 280° |
| 2026-04-28 22:00 | -23.50766 | -46.64549 | 2606 ft | 95 kts | 280° |
| 2026-04-28 22:01 | -23.50622 | -46.65237 | 2827 ft | 113 kts | 285° |
| 2026-04-28 22:01 | -23.50095 | -46.66012 | 3011 ft | 125 kts | 309° |
| 2026-04-28 22:01 | -23.49600 | -46.66737 | 3316 ft | 125 kts | 305° |
| 2026-04-28 22:01 | -23.49017 | -46.67446 | 3576 ft | 121 kts | 322° |
| 2026-04-28 22:02 | -23.48277 | -46.67855 | 3777 ft | 124 kts | 327° |
| 2026-04-28 22:02 | -23.47651 | -46.68608 | 3777 ft | 148 kts | 314° |
| 2026-04-28 22:02 | -23.46801 | -46.69251 | 4081 ft | 148 kts | 318° |
| 2026-04-28 22:02 | -23.46390 | -46.70225 | 4383 ft | 150 kts | 268° |
| 2026-04-28 22:03 | -23.46342 | -46.71388 | 4609 ft | 156 kts | 285° |
| 2026-04-28 22:03 | -23.45906 | -46.72434 | 4932 ft | 154 kts | 304° |
| 2026-04-28 22:03 | -23.45145 | -46.73261 | 5145 ft | 159 kts | 327° |
| 2026-04-28 22:03 | -23.44112 | -46.73689 | 5403 ft | 161 kts | 352° |
| 2026-04-28 22:04 | -23.43002 | -46.73706 | 5724 ft | 159 kts | 5° |
| 2026-04-28 22:04 | -23.41932 | -46.73492 | 6095 ft | 156 kts | 7° |
| 2026-04-28 22:04 | -23.40830 | -46.73375 | 6269 ft | 165 kts | 359° |
| 2026-04-28 22:04 | -23.39642 | -46.73347 | 6359 ft | 177 kts | 358° |
| 2026-04-28 22:05 | -23.38401 | -46.73371 | 6614 ft | 177 kts | 355° |
| 2026-04-28 22:05 | -23.37207 | -46.73471 | 6979 ft | 169 kts | 351° |
| 2026-04-28 22:05 | -23.36034 | -46.73656 | 7152 ft | 174 kts | 348° |
| 2026-04-28 22:05 | -23.34828 | -46.73849 | 7363 ft | 174 kts | 351° |
| 2026-04-28 22:06 | -23.33667 | -46.73970 | 7717 ft | 169 kts | 353° |
| 2026-04-28 22:06 | -23.32443 | -46.74082 | 7705 ft | 185 kts | 352° |
| 2026-04-28 22:06 | -23.31140 | -46.74275 | 7846 ft | 189 kts | 348° |
| 2026-04-28 22:06 | -23.29893 | -46.74608 | 8212 ft | 180 kts | 341° |
| 2026-04-28 22:07 | -23.28752 | -46.75099 | 8509 ft | 176 kts | 338° |
| 2026-04-28 22:07 | -23.27565 | -46.75499 | 8622 ft | 183 kts | 344° |
| 2026-04-28 22:07 | -23.26303 | -46.75805 | 8739 ft | 188 kts | 347° |
| 2026-04-28 22:07 | -23.25031 | -46.76088 | 8977 ft | 185 kts | 346° |
| 2026-04-28 22:08 | -23.23777 | -46.76412 | 9116 ft | 189 kts | 343° |
| 2026-04-28 22:08 | -23.22451 | -46.76846 | 8927 ft | 208 kts | 341° |
| 2026-04-28 22:08 | -23.21050 | -46.77390 | 8855 ft | 216 kts | 338° |
| 2026-04-28 22:08 | -23.19702 | -46.78055 | 9118 ft | 207 kts | 332° |
| 2026-04-28 22:09 | -23.18501 | -46.78847 | 9442 ft | 198 kts | 325° |
| 2026-04-28 22:09 | -23.17438 | -46.79808 | 9455 ft | 205 kts | 317° |
| 2026-04-28 22:09 | -23.16474 | -46.81034 | 9263 ft | 219 kts | 308° |
| 2026-04-28 22:09 | -23.15579 | -46.82364 | 9275 ft | 221 kts | 307° |
| 2026-04-28 22:10 | -23.14736 | -46.83736 | 9483 ft | 214 kts | 307° |
| 2026-04-28 22:10 | -23.13587 | -46.84759 | 9310 ft | 223 kts | 333° |
| 2026-04-28 22:10 | -23.12064 | -46.85190 | 9357 ft | 222 kts | 352° |
| 2026-04-28 22:10 | -23.10597 | -46.85378 | 9797 ft | 204 kts | 352° |
| 2026-04-28 22:11 | -23.09186 | -46.85503 | 9926 ft | 205 kts | 354° |
| 2026-04-28 22:11 | -23.07747 | -46.85606 | 9928 ft | 210 kts | 354° |
| 2026-04-28 22:11 | -23.06280 | -46.85743 | 9970 ft | 212 kts | 352° |
| 2026-04-28 22:11 | -23.04828 | -46.85979 | 10080 ft | 210 kts | 348° |
| 2026-04-28 22:12 | -23.03429 | -46.86380 | 10197 ft | 208 kts | 341° |
| 2026-04-28 22:12 | -23.02091 | -46.86987 | 10249 ft | 209 kts | 333° |
| 2026-04-28 22:12 | -23.00850 | -46.87840 | 10269 ft | 213 kts | 323° |
| 2026-04-28 22:12 | -22.99798 | -46.88961 | 10284 ft | 217 kts | 310° |
| 2026-04-28 22:13 | -22.99008 | -46.90374 | 10314 ft | 221 kts | 297° |
| 2026-04-28 22:13 | -22.98550 | -46.91969 | 10416 ft | 223 kts | 284° |
| 2026-04-28 22:13 | -22.98469 | -46.93653 | 10512 ft | 225 kts | 269° |
| 2026-04-28 22:13 | -22.98807 | -46.95336 | 10552 ft | 232 kts | 255° |
| 2026-04-28 22:14 | -22.99544 | -46.96912 | 10599 ft | 238 kts | 240° |
| 2026-04-28 22:14 | -23.00638 | -46.98275 | 10693 ft | 241 kts | 227° |
| 2026-04-28 22:14 | -23.01992 | -46.99344 | 10820 ft | 241 kts | 213° |
| 2026-04-28 22:14 | -23.03535 | -47.00071 | 10903 ft | 243 kts | 200° |
| 2026-04-28 22:15 | -23.05207 | -47.00428 | 10915 ft | 248 kts | 187° |
| 2026-04-28 22:15 | -23.06949 | -47.00387 | 10910 ft | 252 kts | 174° |
| 2026-04-28 22:15 | -23.08638 | -46.99961 | 10981 ft | 252 kts | 162° |
| 2026-04-28 22:15 | -23.10219 | -46.99153 | 11065 ft | 251 kts | 148° |
| 2026-04-28 22:16 | -23.11603 | -46.98001 | 11117 ft | 251 kts | 136° |
| 2026-04-28 22:16 | -23.12758 | -46.96588 | 11158 ft | 250 kts | 125° |
| 2026-04-28 22:16 | -23.13651 | -46.94985 | 11214 ft | 247 kts | 114° |
| 2026-04-28 22:16 | -23.14240 | -46.93239 | 11251 ft | 245 kts | 101° |
| 2026-04-28 22:17 | -23.14487 | -46.91414 | 11267 ft | 244 kts | 89° |
| 2026-04-28 22:17 | -23.14374 | -46.89590 | 11288 ft | 241 kts | 76° |
| 2026-04-28 22:17 | -23.13901 | -46.87861 | 11328 ft | 237 kts | 63° |
| 2026-04-28 22:17 | -23.13098 | -46.86321 | 11385 ft | 232 kts | 50° |
| 2026-04-28 22:18 | -23.12013 | -46.85046 | 11440 ft | 228 kts | 37° |
| 2026-04-28 22:18 | -23.10704 | -46.84099 | 11469 ft | 226 kts | 24° |
| 2026-04-28 22:18 | -23.09240 | -46.83536 | 11475 ft | 224 kts | 10° |
| 2026-04-28 22:18 | -23.07695 | -46.83399 | 11496 ft | 223 kts | 356° |
| 2026-04-28 22:19 | -23.06163 | -46.83573 | 11606 ft | 219 kts | 351° |
| 2026-04-28 22:19 | -23.04687 | -46.83828 | 11809 ft | 211 kts | 347° |
| 2026-04-28 22:19 | -23.03292 | -46.84213 | 11908 ft | 210 kts | 342° |
| 2026-04-28 22:19 | -23.01915 | -46.84798 | 11866 ft | 216 kts | 334° |
| 2026-04-28 22:20 | -23.00596 | -46.85617 | 11824 ft | 221 kts | 326° |
| 2026-04-28 22:20 | -22.99407 | -46.86671 | 11879 ft | 220 kts | 317° |
| 2026-04-28 22:20 | -22.98428 | -46.87935 | 11997 ft | 219 kts | 306° |
| 2026-04-28 22:20 | -22.97706 | -46.89394 | 12086 ft | 221 kts | 295° |
| 2026-04-28 22:21 | -22.97284 | -46.91013 | 12101 ft | 226 kts | 283° |
| 2026-04-28 22:21 | -22.97180 | -46.92736 | 12139 ft | 230 kts | 275° |
| 2026-04-28 22:21 | -22.97169 | -46.93875 | 12243 ft | 226 kts | 274° |
| 2026-04-28 22:21 | -22.97202 | -46.95565 | 12438 ft | 221 kts | 271° |
| 2026-04-28 22:22 | -22.97335 | -46.97226 | 12529 ft | 222 kts | 266° |
| 2026-04-28 22:22 | -22.97514 | -46.98909 | 12517 ft | 227 kts | 267° |
| 2026-04-28 22:22 | -22.97723 | -47.00618 | 12523 ft | 230 kts | 265° |
| 2026-04-28 22:22 | -22.98159 | -47.02869 | 12638 ft | 230 kts | 258° |
| 2026-04-28 22:23 | -22.98485 | -47.03985 | 12704 ft | 230 kts | 254° |
| 2026-04-28 22:23 | -22.99107 | -47.05589 | 12772 ft | 231 kts | 248° |
| 2026-04-28 22:23 | -22.99892 | -47.07130 | 12804 ft | 235 kts | 242° |
| 2026-04-28 22:23 | -23.00856 | -47.08575 | 12829 ft | 239 kts | 234° |
| 2026-04-28 22:24 | -23.01948 | -47.09912 | 12878 ft | 238 kts | 236° |
| 2026-04-28 22:24 | -23.02778 | -47.11487 | 12833 ft | 238 kts | 250° |
| 2026-04-28 22:24 | -23.03252 | -47.13148 | 12994 ft | 228 kts | 263° |
| 2026-04-28 22:24 | -23.03353 | -47.14814 | 13274 ft | 216 kts | 276° |
| 2026-04-28 22:25 | -23.03188 | -47.16432 | 13300 ft | 217 kts | 282° |
| 2026-04-28 22:25 | -23.02917 | -47.18080 | 13169 ft | 226 kts | 283° |
| 2026-04-28 22:25 | -23.02654 | -47.19784 | 13127 ft | 229 kts | 281° |
| 2026-04-28 22:25 | -23.02476 | -47.21493 | 13246 ft | 226 kts | 277° |
| 2026-04-28 22:26 | -23.02436 | -47.23185 | 13405 ft | 223 kts | 272° |
| 2026-04-28 22:26 | -23.02561 | -47.24869 | 13450 ft | 226 kts | 266° |
| 2026-04-28 22:26 | -23.02876 | -47.26560 | 13407 ft | 232 kts | 258° |
| 2026-04-28 22:26 | -23.03417 | -47.28207 | 13374 ft | 237 kts | 250° |
| 2026-04-28 22:27 | -23.04230 | -47.29773 | 13405 ft | 239 kts | 239° |
| 2026-04-28 22:27 | -23.05300 | -47.31160 | 13463 ft | 241 kts | 229° |
| 2026-04-28 22:27 | -23.06611 | -47.32307 | 13488 ft | 244 kts | 217° |
| 2026-04-28 22:27 | -23.08136 | -47.33163 | 13467 ft | 250 kts | 205° |
| 2026-04-28 22:28 | -23.09824 | -47.33683 | 13458 ft | 254 kts | 193° |
| 2026-04-28 22:28 | -23.11590 | -47.33817 | 13475 ft | 256 kts | 180° |
| 2026-04-28 22:28 | -23.13331 | -47.33534 | 13505 ft | 257 kts | 167° |
| 2026-04-28 22:28 | -23.15009 | -47.32837 | 13513 ft | 259 kts | 154° |
| 2026-04-28 22:29 | -23.16513 | -47.31761 | 13506 ft | 260 kts | 141° |
| 2026-04-28 22:29 | -23.17958 | -47.30574 | 13363 ft | 264 kts | 154° |
| 2026-04-28 22:29 | -23.19783 | -47.30076 | 12845 ft | 280 kts | 179° |
| 2026-04-28 22:29 | -23.21711 | -47.30368 | 12627 ft | 278 kts | 200° |
| 2026-04-28 22:30 | -23.23354 | -47.31264 | 13018 ft | 251 kts | 218° |
| 2026-04-28 22:30 | -23.24653 | -47.32343 | 13558 ft | 226 kts | 223° |
| 2026-04-28 22:30 | -23.25846 | -47.33406 | 13761 ft | 222 kts | 224° |
| 2026-04-28 22:30 | -23.27094 | -47.34483 | 13512 ft | 238 kts | 221° |
| 2026-04-28 22:31 | -23.28478 | -47.35580 | 13242 ft | 252 kts | 218° |
| 2026-04-28 22:31 | -23.29956 | -47.36597 | 13322 ft | 249 kts | 214° |
| 2026-04-28 22:31 | -23.31467 | -47.37430 | 13606 ft | 239 kts | 208° |
| 2026-04-28 22:31 | -23.33014 | -47.38050 | 13737 ft | 237 kts | 201° |
| 2026-04-28 22:32 | -23.34637 | -47.38518 | 13638 ft | 245 kts | 199° |
| 2026-04-28 22:32 | -23.36200 | -47.39272 | 13377 ft | 250 kts | 217° |
| 2026-04-28 22:32 | -23.37540 | -47.40528 | 13080 ft | 255 kts | 229° |
| 2026-04-28 22:32 | -23.38688 | -47.41942 | 13261 ft | 240 kts | 237° |
| 2026-04-28 22:33 | -23.39549 | -47.43419 | 13510 ft | 225 kts | 246° |
| 2026-04-28 22:33 | -23.40167 | -47.44959 | 13493 ft | 222 kts | 256° |
| 2026-04-28 22:33 | -23.40473 | -47.46619 | 13351 ft | 225 kts | 267° |
| 2026-04-28 22:33 | -23.40622 | -47.48335 | 13243 ft | 229 kts | 268° |
| 2026-04-28 22:34 | -23.40788 | -47.49879 | 13240 ft | 227 kts | 266° |
| 2026-04-28 22:34 | -23.40987 | -47.51202 | 13280 ft | 225 kts | 263° |
| 2026-04-28 22:34 | -23.41345 | -47.52857 | 13280 ft | 225 kts | 258° |
| 2026-04-28 22:34 | -23.41841 | -47.54491 | 13210 ft | 229 kts | 253° |
| 2026-04-28 22:35 | -23.42504 | -47.56086 | 13137 ft | 233 kts | 246° |
| 2026-04-28 22:35 | -23.43357 | -47.57601 | 13114 ft | 236 kts | 239° |
| 2026-04-28 22:35 | -23.44396 | -47.58980 | 13122 ft | 236 kts | 232° |
| 2026-04-28 22:35 | -23.45345 | -47.60411 | 13082 ft | 232 kts | 245° |
| 2026-04-28 22:36 | -23.45976 | -47.62032 | 12914 ft | 234 kts | 256° |
| 2026-04-28 22:36 | -23.46347 | -47.63747 | 12856 ft | 231 kts | 264° |
| 2026-04-28 22:36 | -23.46648 | -47.65375 | 12873 ft | 203 kts | 254° |
| 2026-04-28 22:36 | -23.47368 | -47.66690 | 12420 ft | 206 kts | 236° |
| 2026-04-28 22:37 | -23.48448 | -47.67780 | 11724 ft | 212 kts | 223° |
| 2026-04-28 22:37 | -23.49624 | -47.68699 | 11673 ft | 206 kts | 220° |
| 2026-04-28 22:37 | -23.50785 | -47.69638 | 11512 ft | 210 kts | 223° |
| 2026-04-28 22:37 | -23.51948 | -47.70632 | 11276 ft | 216 kts | 222° |
| 2026-04-28 22:38 | -23.53247 | -47.71525 | 10953 ft | 230 kts | 208° |
| 2026-04-28 22:38 | -23.54857 | -47.71986 | 10535 ft | 247 kts | 189° |
| 2026-04-28 22:38 | -23.56549 | -47.71881 | 10389 ft | 237 kts | 168° |
| 2026-04-28 22:38 | -23.58024 | -47.71155 | 9827 ft | 235 kts | 148° |
| 2026-04-28 22:39 | -23.59381 | -47.70281 | 9347 ft | 222 kts | 151° |
| 2026-04-28 22:39 | -23.60469 | -47.69138 | 8722 ft | 226 kts | 117° |
| 2026-04-28 22:39 | -23.60608 | -47.67463 | 7665 ft | 229 kts | 68° |
| 2026-04-28 22:39 | -23.60106 | -47.65921 | 7752 ft | 184 kts | 66° |
| 2026-04-28 22:40 | -23.59779 | -47.64764 | 8108 ft | 152 kts | 68° |
| 2026-04-28 22:40 | -23.59458 | -47.63553 | 7565 ft | 177 kts | 68° |
| 2026-04-28 22:40 | -23.59049 | -47.62218 | 6938 ft | 193 kts | 64° |
| 2026-04-28 22:40 | -23.58507 | -47.60797 | 6110 ft | 211 kts | 62° |
| 2026-04-28 22:41 | -23.58060 | -47.59297 | 5499 ft | 210 kts | 74° |
| 2026-04-28 22:41 | -23.57777 | -47.57745 | 5047 ft | 200 kts | 76° |
| 2026-04-28 22:41 | -23.57510 | -47.56321 | 4755 ft | 189 kts | 75° |
| 2026-04-28 22:41 | -23.57228 | -47.54941 | 4406 ft | 184 kts | 75° |
| 2026-04-28 22:42 | -23.56902 | -47.53613 | 4070 ft | 179 kts | 73° |
| 2026-04-28 22:42 | -23.56544 | -47.52341 | 3785 ft | 173 kts | 75° |
| 2026-04-28 22:42 | -23.56228 | -47.51054 | 3350 ft | 177 kts | 77° |
| 2026-04-28 22:42 | -23.55893 | -47.49795 | 3209 ft | 164 kts | 73° |
| 2026-04-28 22:43 | -23.55527 | -47.48697 | 3274 ft | 148 kts | 72° |
| 2026-04-28 22:43 | -23.54994 | -47.47766 | 3299 ft | 140 kts | 46° |
| 2026-04-28 22:43 | -23.54268 | -47.47254 | 3522 ft | 115 kts | 33° |
| 2026-04-28 22:43 | -23.53533 | -47.46994 | 3496 ft | 113 kts | 354° |
| 2026-04-28 22:44 | -23.52780 | -47.47247 | 3397 ft | 113 kts | 340° |
| 2026-04-28 22:44 | -23.52021 | -47.47506 | 3209 ft | 120 kts | 345° |
| 2026-04-28 22:44 | -23.51219 | -47.47757 | 2929 ft | 118 kts | 345° |
| 2026-04-28 22:44 | -23.50437 | -47.48023 | 2621 ft | 115 kts | 340° |
| 2026-04-28 22:45 | -23.49693 | -47.48310 | 2422 ft | 113 kts | 340° |
| 2026-04-28 22:45 | -23.48964 | -47.48580 | 2234 ft | 108 kts | 341° |
| 2026-04-28 22:45 | -23.48284 | -47.48827 | 2082 ft | 94 kts | 341° |
| 2026-04-28 22:45 | -23.47908 | -47.48965 | 2067 ft | 31 kts | 342° |
| 2026-04-28 22:46 | -23.47760 | -47.49022 | 2063 ft | 21 kts | 339° |